Reynosa, Mexico

7:54 AM EST on September 05, 2015 (GMT -0500)
Gen Lucio Blanco | | Change Station
CLOSE
Current Station
Airport
Location: Reynosa,
Elevation: 128 ft
Nearby Weather Stations

Elev 128 ft 26.01 °N, 98.23 °W | Updated 30 minutes ago

Clear
Clear
77 °F
Feels Like 77 °F
N
5
Wind Variable Wind from SSE

Today
High -- | Low -- °F
--% Chance of Precip.
Yesterday
High -- | Low -- °F
Precip. -- in
7:14 AM 7:48 PM
Waning Gibbous, 49% visible
Pressure 29.93 in
Visibility 3.0 miles
Clouds Clear
Dew Point 73 °F
Humidity 89%
Rainfall 0.00 in
Snow Depth Not available.
UV 0 out of 12
Pollen Not available.
Air Quality Not available.
Flu Activity Not available.
SPECI MMRX 051224Z 15004KT 3SM BR HZ SKC 25/23 A2993
Pressure 29.93 in
Visibility 3.0 miles
Clouds Clear
Dew Point 73 °F
Humidity 89%
Rainfall 0.00 in
Snow Depth Not available.
UV 0 out of 12
Pollen Not available.
Air Quality Not available.
Flu Activity Not available.
SPECI MMRX 051224Z 15004KT 3SM BR HZ SKC 25/23 A2993

10-Day Weather Forecast

×

Almanac

Astronomy

Sep. 05, 2015 Rise Set
Actual Time
Civil Twilight
Nautical Twilight
Astronomical Twilight
Moon
Length of Visible Light
Length of Day
Tomorrow will be .
, % of the Moon is Illuminated

Today's Extremes

Country Highs Country Lows

Community

WunderPhotos

Upload Photos

1,852,454 photos uploaded!

WunderBlogs® & News

Nearby

Air Quality

  Air Quality AQ Index Pollutant
Not available.

Snow Depth

Station Depth Elevation

Earthquake Activity

City Distance Mag. Time & Date
Minimum magnitude displayed is 2.5.

Coastal Water Temperatures

Place Temperature

Stations

Nearby Weather Stations

Station Location Temp. Windchill Dew Point Humidity Wind Precip. Elev Updated Type